sensor_id;sensor_type;location;lat;lon;timestamp;pressure;altitude;pressure_sealevel;temperature;humidity
79577;BME280;69045;48.136;11.386;2023-12-14T00:02:00;94157.38;;;10.19;65.39
79577;BME280;69045;48.136;11.386;2023-12-14T00:04:27;94158.88;;;10.15;65.56
79577;BME280;69045;48.136;11.386;2023-12-14T00:06:56;94162.00;;;10.12;66.26
79577;BME280;69045;48.136;11.386;2023-12-14T00:09:25;94170.63;;;10.12;65.85
79577;BME280;69045;48.136;11.386;2023-12-14T00:11:52;94171.41;;;10.13;66.71
79577;BME280;69045;48.136;11.386;2023-12-14T00:14:20;94174.28;;;10.11;66.83
79577;BME280;69045;48.136;11.386;2023-12-14T00:16:48;94181.41;;;10.16;65.74
79577;BME280;69045;48.136;11.386;2023-12-14T00:19:17;94182.91;;;10.12;66.26
79577;BME280;69045;48.136;11.386;2023-12-14T00:21:45;94179.75;;;10.10;66.91
79577;BME280;69045;48.136;11.386;2023-12-14T00:24:14;94188.41;;;10.10;66.26
79577;BME280;69045;48.136;11.386;2023-12-14T00:26:42;94184.25;;;10.15;66.35
79577;BME280;69045;48.136;11.386;2023-12-14T00:29:10;94184.81;;;10.17;66.18
79577;BME280;69045;48.136;11.386;2023-12-14T00:31:38;94183.00;;;10.17;66.84
79577;BME280;69045;48.136;11.386;2023-12-14T00:34:06;94191.38;;;10.19;66.75
79577;BME280;69045;48.136;11.386;2023-12-14T00:36:34;94196.38;;;10.21;67.12
79577;BME280;69045;48.136;11.386;2023-12-14T00:39:02;94206.16;;;10.25;66.64
79577;BME280;69045;48.136;11.386;2023-12-14T00:41:31;94209.56;;;10.26;66.01
79577;BME280;69045;48.136;11.386;2023-12-14T00:43:59;94210.59;;;10.25;65.77
79577;BME280;69045;48.136;11.386;2023-12-14T00:46:27;94213.81;;;10.15;66.97
79577;BME280;69045;48.136;11.386;2023-12-14T00:48:55;94222.72;;;10.14;67.18
79577;BME280;69045;48.136;11.386;2023-12-14T00:51:23;94215.91;;;10.13;67.60
79577;BME280;69045;48.136;11.386;2023-12-14T00:53:51;94229.34;;;10.22;65.79
79577;BME280;69045;48.136;11.386;2023-12-14T00:56:19;94223.28;;;10.16;65.50
79577;BME280;69045;48.136;11.386;2023-12-14T00:58:49;94237.69;;;10.19;66.07
79577;BME280;69045;48.136;11.386;2023-12-14T01:01:17;94235.38;;;10.22;66.26
79577;BME280;69045;48.136;11.386;2023-12-14T01:03:45;94240.31;;;10.19;66.42
79577;BME280;69045;48.136;11.386;2023-12-14T01:06:13;94242.00;;;10.25;65.18
79577;BME280;69045;48.136;11.386;2023-12-14T01:08:41;94247.31;;;10.30;65.41
79577;BME280;69045;48.136;11.386;2023-12-14T01:11:09;94251.97;;;10.28;65.00
79577;BME280;69045;48.136;11.386;2023-12-14T01:13:37;94256.66;;;10.26;64.96
79577;BME280;69045;48.136;11.386;2023-12-14T01:16:07;94261.13;;;10.25;65.52
79577;BME280;69045;48.136;11.386;2023-12-14T01:18:35;94261.91;;;10.26;65.34
79577;BME280;69045;48.136;11.386;2023-12-14T01:21:04;94270.59;;;10.15;65.65
79577;BME280;69045;48.136;11.386;2023-12-14T01:23:32;94277.13;;;10.12;65.21
79577;BME280;69045;48.136;11.386;2023-12-14T01:26:00;94269.50;;;10.10;66.33
79577;BME280;69045;48.136;11.386;2023-12-14T01:28:28;94276.56;;;10.10;66.16
79577;BME280;69045;48.136;11.386;2023-12-14T01:30:56;94282.50;;;10.05;66.85
79577;BME280;69045;48.136;11.386;2023-12-14T01:33:25;94282.25;;;10.07;66.99
79577;BME280;69045;48.136;11.386;2023-12-14T01:35:53;94291.06;;;10.01;66.61
79577;BME280;69045;48.136;11.386;2023-12-14T01:38:21;94292.09;;;10.00;67.04
79577;BME280;69045;48.136;11.386;2023-12-14T01:40:49;94303.34;;;10.00;67.52
79577;BME280;69045;48.136;11.386;2023-12-14T01:43:18;94299.94;;;10.00;67.22
79577;BME280;69045;48.136;11.386;2023-12-14T01:45:45;94303.59;;;9.99;67.77
79577;BME280;69045;48.136;11.386;2023-12-14T01:48:13;94303.06;;;9.97;67.53
79577;BME280;69045;48.136;11.386;2023-12-14T01:50:43;94306.22;;;9.99;67.43
79577;BME280;69045;48.136;11.386;2023-12-14T01:53:11;94315.88;;;9.98;68.16
79577;BME280;69045;48.136;11.386;2023-12-14T01:55:39;94317.47;;;9.99;68.28
79577;BME280;69045;48.136;11.386;2023-12-14T01:58:07;94315.00;;;9.93;67.54
79577;BME280;69045;48.136;11.386;2023-12-14T02:00:43;94323.34;;;9.90;67.70
79577;BME280;69045;48.136;11.386;2023-12-14T02:03:14;94325.38;;;9.88;67.46
79577;BME280;69045;48.136;11.386;2023-12-14T02:05:44;94328.56;;;9.90;67.68
79577;BME280;69045;48.136;11.386;2023-12-14T02:08:12;94325.88;;;9.84;67.50
79577;BME280;69045;48.136;11.386;2023-12-14T02:10:40;94338.47;;;9.88;68.46
79577;BME280;69045;48.136;11.386;2023-12-14T02:13:08;94342.00;;;9.81;68.16
79577;BME280;69045;48.136;11.386;2023-12-14T02:15:36;94338.59;;;9.81;68.17
79577;BME280;69045;48.136;11.386;2023-12-14T02:18:04;94339.50;;;9.87;67.86
79577;BME280;69045;48.136;11.386;2023-12-14T02:20:32;94349.34;;;9.96;69.28
79577;BME280;69045;48.136;11.386;2023-12-14T02:23:01;94347.69;;;10.07;66.46
79577;BME280;69045;48.136;11.386;2023-12-14T02:25:29;94351.31;;;10.06;66.78
79577;BME280;69045;48.136;11.386;2023-12-14T02:27:57;94345.84;;;10.07;67.74
79577;BME280;69045;48.136;11.386;2023-12-14T02:30:25;94353.00;;;10.12;66.58
79577;BME280;69045;48.136;11.386;2023-12-14T02:32:53;94358.63;;;10.04;66.80
79577;BME280;69045;48.136;11.386;2023-12-14T02:35:21;94364.41;;;9.89;67.58
79577;BME280;69045;48.136;11.386;2023-12-14T02:37:49;94369.28;;;9.85;67.89
79577;BME280;69045;48.136;11.386;2023-12-14T02:40:19;94370.31;;;9.84;67.87
79577;BME280;69045;48.136;11.386;2023-12-14T02:42:47;94380.13;;;9.77;67.91
79577;BME280;69045;48.136;11.386;2023-12-14T02:45:15;94382.75;;;9.77;68.02
79577;BME280;69045;48.136;11.386;2023-12-14T02:47:43;94381.88;;;9.89;67.48
79577;BME280;69045;48.136;11.386;2023-12-14T02:50:11;94382.91;;;9.88;67.95
79577;BME280;69045;48.136;11.386;2023-12-14T02:52:39;94379.66;;;9.80;68.64
79577;BME280;69045;48.136;11.386;2023-12-14T02:55:07;94390.69;;;9.82;68.77
79577;BME280;69045;48.136;11.386;2023-12-14T02:57:36;94396.38;;;9.79;68.48
79577;BME280;69045;48.136;11.386;2023-12-14T03:00:05;94396.06;;;9.76;69.13
79577;BME280;69045;48.136;11.386;2023-12-14T03:02:34;94400.16;;;9.72;68.87
79577;BME280;69045;48.136;11.386;2023-12-14T03:05:02;94405.28;;;9.67;68.66
79577;BME280;69045;48.136;11.386;2023-12-14T03:07:32;94407.59;;;9.63;68.71
79577;BME280;69045;48.136;11.386;2023-12-14T03:10:02;94406.31;;;9.66;69.10
79577;BME280;69045;48.136;11.386;2023-12-14T03:12:30;94406.00;;;9.62;68.69
79577;BME280;69045;48.136;11.386;2023-12-14T03:15:00;94408.19;;;9.53;68.93
79577;BME280;69045;48.136;11.386;2023-12-14T03:17:29;94415.78;;;9.55;68.31
79577;BME280;69045;48.136;11.386;2023-12-14T03:19:57;94418.88;;;9.52;68.37
79577;BME280;69045;48.136;11.386;2023-12-14T03:22:25;94419.66;;;9.52;69.20
79577;BME280;69045;48.136;11.386;2023-12-14T03:24:53;94420.16;;;9.49;69.28
79577;BME280;69045;48.136;11.386;2023-12-14T03:27:21;94429.56;;;9.50;69.24
79577;BME280;69045;48.136;11.386;2023-12-14T03:29:50;94428.00;;;9.49;69.08
79577;BME280;69045;48.136;11.386;2023-12-14T03:32:19;94437.66;;;9.49;69.43
79577;BME280;69045;48.136;11.386;2023-12-14T03:34:47;94445.25;;;9.50;69.52
79577;BME280;69045;48.136;11.386;2023-12-14T03:37:15;94442.88;;;9.49;68.79
79577;BME280;69045;48.136;11.386;2023-12-14T03:39:43;94447.31;;;9.48;68.67
79577;BME280;69045;48.136;11.386;2023-12-14T03:42:11;94448.78;;;9.44;69.71
79577;BME280;69045;48.136;11.386;2023-12-14T03:44:39;94449.81;;;9.43;69.17
79577;BME280;69045;48.136;11.386;2023-12-14T03:47:07;94454.00;;;9.44;69.44
79577;BME280;69045;48.136;11.386;2023-12-14T03:49:38;94459.25;;;9.44;68.35
79577;BME280;69045;48.136;11.386;2023-12-14T03:52:06;94469.94;;;9.43;68.64
79577;BME280;69045;48.136;11.386;2023-12-14T03:54:34;94470.50;;;9.45;68.95
79577;BME280;69045;48.136;11.386;2023-12-14T03:57:02;94476.06;;;9.48;68.50
79577;BME280;69045;48.136;11.386;2023-12-14T03:59:30;94477.53;;;9.44;68.57
79577;BME280;69045;48.136;11.386;2023-12-14T04:01:59;94482.34;;;9.36;68.28
79577;BME280;69045;48.136;11.386;2023-12-14T04:04:27;94489.38;;;9.35;68.15
79577;BME280;69045;48.136;11.386;2023-12-14T04:06:56;94491.75;;;9.37;68.58
79577;BME280;69045;48.136;11.386;2023-12-14T04:09:24;94497.22;;;9.35;68.41
79577;BME280;69045;48.136;11.386;2023-12-14T04:11:52;94498.47;;;9.33;68.96
79577;BME280;69045;48.136;11.386;2023-12-14T04:14:20;94505.06;;;9.35;68.98
79577;BME280;69045;48.136;11.386;2023-12-14T04:16:48;94510.50;;;9.34;68.75
79577;BME280;69045;48.136;11.386;2023-12-14T04:19:16;94511.19;;;9.29;69.00
79577;BME280;69045;48.136;11.386;2023-12-14T04:21:44;94517.88;;;9.25;69.08
79577;BME280;69045;48.136;11.386;2023-12-14T04:24:13;94521.28;;;9.25;69.25
79577;BME280;69045;48.136;11.386;2023-12-14T04:26:41;94523.91;;;9.25;68.33
79577;BME280;69045;48.136;11.386;2023-12-14T04:29:09;94521.28;;;9.25;68.94
79577;BME280;69045;48.136;11.386;2023-12-14T04:31:37;94531.31;;;9.28;68.05
79577;BME280;69045;48.136;11.386;2023-12-14T04:34:05;94534.03;;;9.22;68.51
79577;BME280;69045;48.136;11.386;2023-12-14T04:36:38;94537.88;;;9.19;68.39
79577;BME280;69045;48.136;11.386;2023-12-14T04:39:06;94546.75;;;9.18;68.28
79577;BME280;69045;48.136;11.386;2023-12-14T04:41:36;94550.38;;;9.17;68.49
79577;BME280;69045;48.136;11.386;2023-12-14T04:44:04;94548.22;;;9.14;68.32
79577;BME280;69045;48.136;11.386;2023-12-14T04:46:32;94554.25;;;9.15;68.39
79577;BME280;69045;48.136;11.386;2023-12-14T04:49:00;94560.94;;;9.11;68.10
79577;BME280;69045;48.136;11.386;2023-12-14T04:51:28;94564.59;;;9.10;67.98
79577;BME280;69045;48.136;11.386;2023-12-14T04:53:56;94570.84;;;9.09;68.42
79577;BME280;69045;48.136;11.386;2023-12-14T04:56:24;94572.28;;;9.05;68.56
79577;BME280;69045;48.136;11.386;2023-12-14T04:58:53;94570.47;;;9.05;68.56
79577;BME280;69045;48.136;11.386;2023-12-14T05:01:21;94574.56;;;9.13;68.09
79577;BME280;69045;48.136;11.386;2023-12-14T05:03:49;94574.81;;;9.11;68.43
79577;BME280;69045;48.136;11.386;2023-12-14T05:06:17;94584.78;;;9.14;68.35
79577;BME280;69045;48.136;11.386;2023-12-14T05:08:45;94587.41;;;9.14;68.49
79577;BME280;69045;48.136;11.386;2023-12-14T05:11:13;94589.69;;;9.11;68.98
79577;BME280;69045;48.136;11.386;2023-12-14T05:13:41;94597.16;;;9.07;69.29
79577;BME280;69045;48.136;11.386;2023-12-14T05:16:14;94597.38;;;9.06;69.42
79577;BME280;69045;48.136;11.386;2023-12-14T05:18:42;94604.00;;;9.08;69.45
79577;BME280;69045;48.136;11.386;2023-12-14T05:21:16;94608.88;;;9.05;69.67
79577;BME280;69045;48.136;11.386;2023-12-14T05:23:44;94607.84;;;9.06;69.16
79577;BME280;69045;48.136;11.386;2023-12-14T05:26:12;94614.44;;;9.08;69.72
79577;BME280;69045;48.136;11.386;2023-12-14T05:28:40;94620.66;;;9.07;69.48
79577;BME280;69045;48.136;11.386;2023-12-14T05:31:08;94621.13;;;9.04;69.90
79577;BME280;69045;48.136;11.386;2023-12-14T05:33:38;94628.16;;;9.03;69.36
79577;BME280;69045;48.136;11.386;2023-12-14T05:36:07;94623.75;;;9.04;69.62
79577;BME280;69045;48.136;11.386;2023-12-14T05:38:38;94628.88;;;9.11;69.95
79577;BME280;69045;48.136;11.386;2023-12-14T05:41:07;94636.47;;;9.12;69.91
79577;BME280;69045;48.136;11.386;2023-12-14T05:43:35;94635.69;;;9.12;69.51
79577;BME280;69045;48.136;11.386;2023-12-14T05:46:03;94642.97;;;9.10;70.20
79577;BME280;69045;48.136;11.386;2023-12-14T05:48:31;94649.31;;;9.14;70.02
79577;BME280;69045;48.136;11.386;2023-12-14T05:51:01;94655.13;;;9.16;70.33
79577;BME280;69045;48.136;11.386;2023-12-14T05:53:29;94658.53;;;9.16;70.30
79577;BME280;69045;48.136;11.386;2023-12-14T05:55:57;94655.22;;;9.21;69.97
79577;BME280;69045;48.136;11.386;2023-12-14T05:58:26;94662.28;;;9.20;69.82
79577;BME280;69045;48.136;11.386;2023-12-14T06:00:55;94669.91;;;9.22;70.37
79577;BME280;69045;48.136;11.386;2023-12-14T06:03:23;94682.63;;;9.18;70.43
79577;BME280;69045;48.136;11.386;2023-12-14T06:05:51;94677.63;;;9.17;70.14
79577;BME280;69045;48.136;11.386;2023-12-14T06:08:20;94692.28;;;9.18;70.03
79577;BME280;69045;48.136;11.386;2023-12-14T06:10:48;94693.06;;;9.18;70.29
79577;BME280;69045;48.136;11.386;2023-12-14T06:13:16;94700.09;;;9.18;70.63
79577;BME280;69045;48.136;11.386;2023-12-14T06:15:44;94700.69;;;9.20;70.34
79577;BME280;69045;48.136;11.386;2023-12-14T06:18:12;94706.34;;;9.17;70.20
79577;BME280;69045;48.136;11.386;2023-12-14T06:20:40;94707.94;;;9.18;70.80
79577;BME280;69045;48.136;11.386;2023-12-14T06:23:08;94705.56;;;9.16;70.25
79577;BME280;69045;48.136;11.386;2023-12-14T06:25:38;94709.09;;;9.22;70.48
79577;BME280;69045;48.136;11.386;2023-12-14T06:28:06;94712.19;;;9.30;71.18
79577;BME280;69045;48.136;11.386;2023-12-14T06:30:34;94730.53;;;9.42;71.13
79577;BME280;69045;48.136;11.386;2023-12-14T06:33:02;94726.31;;;9.53;70.50
79577;BME280;69045;48.136;11.386;2023-12-14T06:35:30;94731.22;;;9.61;70.90
79577;BME280;69045;48.136;11.386;2023-12-14T06:37:58;94733.41;;;9.64;70.09
79577;BME280;69045;48.136;11.386;2023-12-14T06:40:26;94741.38;;;9.69;69.68
79577;BME280;69045;48.136;11.386;2023-12-14T06:42:56;94736.47;;;9.73;69.85
79577;BME280;69045;48.136;11.386;2023-12-14T06:45:24;94738.44;;;9.77;69.81
79577;BME280;69045;48.136;11.386;2023-12-14T06:47:51;94744.00;;;9.81;69.31
79577;BME280;69045;48.136;11.386;2023-12-14T06:50:19;94748.00;;;9.83;69.44
79577;BME280;69045;48.136;11.386;2023-12-14T06:52:48;94748.78;;;9.84;69.57
79577;BME280;69045;48.136;11.386;2023-12-14T06:55:16;94756.63;;;9.84;69.27
79577;BME280;69045;48.136;11.386;2023-12-14T06:57:43;94758.22;;;9.85;69.54
79577;BME280;69045;48.136;11.386;2023-12-14T07:00:15;94772.34;;;9.84;69.08
79577;BME280;69045;48.136;11.386;2023-12-14T07:02:44;94773.78;;;9.80;68.50
79577;BME280;69045;48.136;11.386;2023-12-14T07:05:12;94782.91;;;9.77;68.53
79577;BME280;69045;48.136;11.386;2023-12-14T07:07:40;94784.13;;;9.75;68.59
79577;BME280;69045;48.136;11.386;2023-12-14T07:10:08;94788.00;;;9.72;69.21
79577;BME280;69045;48.136;11.386;2023-12-14T07:12:36;94796.06;;;9.71;69.04
79577;BME280;69045;48.136;11.386;2023-12-14T07:15:05;94791.28;;;9.68;69.55
79577;BME280;69045;48.136;11.386;2023-12-14T07:17:34;94795.94;;;9.66;69.64
79577;BME280;69045;48.136;11.386;2023-12-14T07:20:03;94803.00;;;9.65;69.42
79577;BME280;69045;48.136;11.386;2023-12-14T07:22:33;94815.25;;;9.65;69.19
79577;BME280;69045;48.136;11.386;2023-12-14T07:25:01;94814.47;;;9.64;69.19
79577;BME280;69045;48.136;11.386;2023-12-14T07:27:30;94813.44;;;9.65;69.50
79577;BME280;69045;48.136;11.386;2023-12-14T07:29:58;94814.00;;;9.67;69.43
79577;BME280;69045;48.136;11.386;2023-12-14T07:32:26;94822.66;;;9.68;69.57
79577;BME280;69045;48.136;11.386;2023-12-14T07:34:56;94823.44;;;9.68;69.60
79577;BME280;69045;48.136;11.386;2023-12-14T07:37:24;94826.88;;;9.69;69.19
79577;BME280;69045;48.136;11.386;2023-12-14T07:39:52;94826.66;;;9.70;70.09
79577;BME280;69045;48.136;11.386;2023-12-14T07:42:20;94833.47;;;9.71;69.32
79577;BME280;69045;48.136;11.386;2023-12-14T07:44:48;94832.00;;;9.75;69.45
79577;BME280;69045;48.136;11.386;2023-12-14T07:47:15;94838.38;;;9.79;68.86
79577;BME280;69045;48.136;11.386;2023-12-14T07:49:43;94837.97;;;9.82;69.89
79577;BME280;69045;48.136;11.386;2023-12-14T07:52:13;94841.56;;;9.81;68.61
79577;BME280;69045;48.136;11.386;2023-12-14T07:54:41;94845.81;;;9.82;69.05
79577;BME280;69045;48.136;11.386;2023-12-14T07:57:09;94857.84;;;9.83;69.70
79577;BME280;69045;48.136;11.386;2023-12-14T07:59:37;94845.81;;;9.82;69.29
79577;BME280;69045;48.136;11.386;2023-12-14T08:02:05;94866.28;;;9.85;69.36
79577;BME280;69045;48.136;11.386;2023-12-14T08:04:33;94861.84;;;9.86;68.96
79577;BME280;69045;48.136;11.386;2023-12-14T08:07:01;94870.47;;;9.87;68.78
79577;BME280;69045;48.136;11.386;2023-12-14T08:09:31;94876.19;;;9.95;70.90
79577;BME280;69045;48.136;11.386;2023-12-14T08:11:59;94879.03;;;10.24;71.45
79577;BME280;69045;48.136;11.386;2023-12-14T08:14:27;94878.81;;;10.49;70.20
79577;BME280;69045;48.136;11.386;2023-12-14T08:16:55;94886.47;;;10.74;70.30
79577;BME280;69045;48.136;11.386;2023-12-14T08:19:23;94891.50;;;10.99;68.44
79577;BME280;69045;48.136;11.386;2023-12-14T08:21:51;94895.00;;;11.16;66.57
79577;BME280;69045;48.136;11.386;2023-12-14T08:24:19;94898.16;;;11.30;66.25
79577;BME280;69045;48.136;11.386;2023-12-14T08:26:48;94901.91;;;11.45;65.42
79577;BME280;69045;48.136;11.386;2023-12-14T08:29:16;94910.31;;;11.59;63.69
79577;BME280;69045;48.136;11.386;2023-12-14T08:31:44;94914.97;;;11.57;63.66
79577;BME280;69045;48.136;11.386;2023-12-14T08:34:12;94920.00;;;11.59;63.73
79577;BME280;69045;48.136;11.386;2023-12-14T08:36:41;94922.50;;;11.65;63.77
79577;BME280;69045;48.136;11.386;2023-12-14T08:39:09;94926.56;;;11.73;63.21
79577;BME280;69045;48.136;11.386;2023-12-14T08:41:37;94935.94;;;11.81;63.68
79577;BME280;69045;48.136;11.386;2023-12-14T08:44:07;94934.22;;;11.86;62.98
79577;BME280;69045;48.136;11.386;2023-12-14T08:46:39;94944.03;;;11.79;61.98
79577;BME280;69045;48.136;11.386;2023-12-14T08:49:07;94942.66;;;11.65;62.81
79577;BME280;69045;48.136;11.386;2023-12-14T08:51:35;94949.66;;;11.47;62.73
79577;BME280;69045;48.136;11.386;2023-12-14T08:54:03;94946.03;;;11.37;62.89
79577;BME280;69045;48.136;11.386;2023-12-14T08:56:31;94950.84;;;11.28;63.09
79577;BME280;69045;48.136;11.386;2023-12-14T08:58:59;94953.69;;;11.15;64.47
79577;BME280;69045;48.136;11.386;2023-12-14T09:01:32;94960.53;;;11.04;64.42
79577;BME280;69045;48.136;11.386;2023-12-14T09:04:00;94963.38;;;10.91;64.66
79577;BME280;69045;48.136;11.386;2023-12-14T09:06:29;94973.50;;;10.87;65.39
79577;BME280;69045;48.136;11.386;2023-12-14T09:08:57;94978.53;;;10.77;65.70
79577;BME280;69045;48.136;11.386;2023-12-14T09:11:25;94977.47;;;10.66;66.26
79577;BME280;69045;48.136;11.386;2023-12-14T09:13:53;94984.88;;;10.58;66.71
79577;BME280;69045;48.136;11.386;2023-12-14T09:16:21;94989.84;;;10.48;67.73
79577;BME280;69045;48.136;11.386;2023-12-14T09:18:50;95001.78;;;10.44;66.83
79577;BME280;69045;48.136;11.386;2023-12-14T09:21:18;94993.56;;;10.40;67.25
79577;BME280;69045;48.136;11.386;2023-12-14T09:23:53;95003.25;;;10.39;67.57
79577;BME280;69045;48.136;11.386;2023-12-14T09:26:21;95006.31;;;10.36;68.23
79577;BME280;69045;48.136;11.386;2023-12-14T09:28:49;95007.78;;;10.32;68.21
79577;BME280;69045;48.136;11.386;2023-12-14T09:31:17;95011.28;;;10.26;68.38
79577;BME280;69045;48.136;11.386;2023-12-14T09:33:45;95003.25;;;10.21;68.17
79577;BME280;69045;48.136;11.386;2023-12-14T09:36:15;95012.78;;;10.16;68.45
79577;BME280;69045;48.136;11.386;2023-12-14T09:38:43;95011.41;;;10.13;68.09
79577;BME280;69045;48.136;11.386;2023-12-14T09:41:12;95010.84;;;10.11;68.53
79577;BME280;69045;48.136;11.386;2023-12-14T09:43:41;95021.31;;;10.11;68.22
79577;BME280;69045;48.136;11.386;2023-12-14T09:46:11;95020.84;;;10.14;68.62
79577;BME280;69045;48.136;11.386;2023-12-14T09:48:39;95024.06;;;10.16;68.21
79577;BME280;69045;48.136;11.386;2023-12-14T09:51:08;95020.63;;;10.16;68.20
79577;BME280;69045;48.136;11.386;2023-12-14T09:53:38;95028.28;;;10.17;68.03
79577;BME280;69045;48.136;11.386;2023-12-14T09:56:07;95033.28;;;10.19;67.92
79577;BME280;69045;48.136;11.386;2023-12-14T09:58:35;95025.44;;;10.19;68.46
79577;BME280;69045;48.136;11.386;2023-12-14T10:01:21;95030.69;;;10.19;68.87
79577;BME280;69045;48.136;11.386;2023-12-14T10:03:49;95036.25;;;10.22;69.43
79577;BME280;69045;48.136;11.386;2023-12-14T10:06:17;95030.84;;;10.24;68.42
79577;BME280;69045;48.136;11.386;2023-12-14T10:08:56;95035.28;;;10.23;68.18
79577;BME280;69045;48.136;11.386;2023-12-14T10:11:24;95045.34;;;10.20;68.54
79577;BME280;69045;48.136;11.386;2023-12-14T10:13:52;95049.00;;;10.19;68.46
79577;BME280;69045;48.136;11.386;2023-12-14T10:16:30;95045.00;;;10.16;68.28
79577;BME280;69045;48.136;11.386;2023-12-14T10:18:59;95046.25;;;10.13;69.47
79577;BME280;69045;48.136;11.386;2023-12-14T10:21:28;95052.50;;;10.12;68.73
79577;BME280;69045;48.136;11.386;2023-12-14T10:23:58;95047.03;;;10.14;68.88
79577;BME280;69045;48.136;11.386;2023-12-14T10:26:27;95047.81;;;10.15;69.51
79577;BME280;69045;48.136;11.386;2023-12-14T10:28:55;95044.41;;;10.14;69.48
79577;BME280;69045;48.136;11.386;2023-12-14T10:31:24;95046.81;;;10.16;69.60
79577;BME280;69045;48.136;11.386;2023-12-14T10:33:52;95049.78;;;10.19;68.88
79577;BME280;69045;48.136;11.386;2023-12-14T10:36:22;95046.94;;;10.21;69.11
79577;BME280;69045;48.136;11.386;2023-12-14T10:38:52;95055.22;;;10.24;69.12
79577;BME280;69045;48.136;11.386;2023-12-14T10:41:23;95055.22;;;10.24;69.44
79577;BME280;69045;48.136;11.386;2023-12-14T10:43:53;95057.16;;;10.29;68.70
79577;BME280;69045;48.136;11.386;2023-12-14T10:46:42;95064.13;;;10.35;67.74
79577;BME280;69045;48.136;11.386;2023-12-14T10:49:15;95060.38;;;10.31;68.53
79577;BME280;69045;48.136;11.386;2023-12-14T10:51:43;95065.28;;;10.39;68.71
79577;BME280;69045;48.136;11.386;2023-12-14T10:54:16;95060.38;;;10.43;67.38
79577;BME280;69045;48.136;11.386;2023-12-14T10:56:46;95075.38;;;10.54;67.92
79577;BME280;69045;48.136;11.386;2023-12-14T10:59:15;95076.72;;;10.56;67.25
79577;BME280;69045;48.136;11.386;2023-12-14T11:01:43;95070.19;;;10.65;67.15
79577;BME280;69045;48.136;11.386;2023-12-14T11:04:11;95078.06;;;10.77;65.69
79577;BME280;69045;48.136;11.386;2023-12-14T11:06:41;95080.59;;;10.84;66.60
79577;BME280;69045;48.136;11.386;2023-12-14T11:09:17;95073.91;;;11.00;65.10
79577;BME280;69045;48.136;11.386;2023-12-14T11:11:56;95086.47;;;11.09;64.51
79577;BME280;69045;48.136;11.386;2023-12-14T11:14:27;95094.69;;;11.13;64.47
79577;BME280;69045;48.136;11.386;2023-12-14T11:16:56;95090.38;;;11.18;64.35
79577;BME280;69045;48.136;11.386;2023-12-14T11:19:30;95098.00;;;11.20;64.30
79577;BME280;69045;48.136;11.386;2023-12-14T11:22:12;95100.53;;;11.27;63.69
79577;BME280;69045;48.136;11.386;2023-12-14T11:24:51;95102.47;;;11.31;63.58
79577;BME280;69045;48.136;11.386;2023-12-14T11:27:28;95101.88;;;11.29;63.31
79577;BME280;69045;48.136;11.386;2023-12-14T11:29:57;95112.50;;;11.34;63.82
79577;BME280;69045;48.136;11.386;2023-12-14T11:32:26;95105.88;;;11.43;63.45
79577;BME280;69045;48.136;11.386;2023-12-14T11:34:55;95107.50;;;11.56;62.76
79577;BME280;69045;48.136;11.386;2023-12-14T11:37:24;95113.19;;;11.65;62.40
79577;BME280;69045;48.136;11.386;2023-12-14T11:39:52;95112.41;;;11.76;61.82
79577;BME280;69045;48.136;11.386;2023-12-14T11:42:21;95114.16;;;11.82;63.78
79577;BME280;69045;48.136;11.386;2023-12-14T11:44:50;95112.53;;;12.05;61.71
79577;BME280;69045;48.136;11.386;2023-12-14T11:47:18;95112.41;;;12.11;60.70
79577;BME280;69045;48.136;11.386;2023-12-14T11:49:46;95111.25;;;12.19;60.61
79577;BME280;69045;48.136;11.386;2023-12-14T11:52:14;95114.59;;;12.14;60.06
79577;BME280;69045;48.136;11.386;2023-12-14T11:54:42;95115.03;;;12.11;60.78
79577;BME280;69045;48.136;11.386;2023-12-14T11:57:10;95119.59;;;12.04;60.45
79577;BME280;69045;48.136;11.386;2023-12-14T11:59:38;95119.38;;;12.06;60.40
79577;BME280;69045;48.136;11.386;2023-12-14T12:02:07;95123.69;;;12.12;60.04
79577;BME280;69045;48.136;11.386;2023-12-14T12:04:35;95132.25;;;12.19;59.60
79577;BME280;69045;48.136;11.386;2023-12-14T12:07:05;95133.06;;;12.19;60.15
79577;BME280;69045;48.136;11.386;2023-12-14T12:09:36;95134.56;;;12.15;60.89
79577;BME280;69045;48.136;11.386;2023-12-14T12:12:06;95144.81;;;12.17;60.47
79577;BME280;69045;48.136;11.386;2023-12-14T12:14:34;95145.50;;;12.24;59.68
79577;BME280;69045;48.136;11.386;2023-12-14T12:17:03;95151.00;;;12.22;59.62
79577;BME280;69045;48.136;11.386;2023-12-14T12:19:35;95150.44;;;12.09;60.01
79577;BME280;69045;48.136;11.386;2023-12-14T12:22:05;95153.75;;;11.92;60.87
79577;BME280;69045;48.136;11.386;2023-12-14T12:24:32;95159.31;;;11.84;60.51
79577;BME280;69045;48.136;11.386;2023-12-14T12:27:01;95152.81;;;11.75;61.62
79577;BME280;69045;48.136;11.386;2023-12-14T12:29:29;95157.56;;;11.78;62.01
79577;BME280;69045;48.136;11.386;2023-12-14T12:31:57;95152.00;;;11.74;61.36
79577;BME280;69045;48.136;11.386;2023-12-14T12:34:25;95162.38;;;11.69;61.77
79577;BME280;69045;48.136;11.386;2023-12-14T12:36:54;95160.41;;;11.65;62.05
79577;BME280;69045;48.136;11.386;2023-12-14T12:39:24;95163.75;;;11.60;61.79
79577;BME280;69045;48.136;11.386;2023-12-14T12:41:52;95169.22;;;11.59;63.00
79577;BME280;69045;48.136;11.386;2023-12-14T12:44:20;95167.28;;;11.66;62.25
79577;BME280;69045;48.136;11.386;2023-12-14T12:46:48;95164.72;;;12.13;62.11
79577;BME280;69045;48.136;11.386;2023-12-14T12:49:30;95171.91;;;12.69;58.39
79577;BME280;69045;48.136;11.386;2023-12-14T12:52:00;95176.44;;;13.14;57.36
79577;BME280;69045;48.136;11.386;2023-12-14T12:54:28;95180.28;;;13.52;55.78
79577;BME280;69045;48.136;11.386;2023-12-14T12:56:56;95184.03;;;13.73;55.83
79577;BME280;69045;48.136;11.386;2023-12-14T12:59:24;95181.53;;;14.16;54.28
79577;BME280;69045;48.136;11.386;2023-12-14T13:01:53;95181.78;;;14.15;53.69
79577;BME280;69045;48.136;11.386;2023-12-14T13:04:21;95185.78;;;14.56;52.94